Urbanna, VA (23175)

3:28 PM EST on January 24, 2017 (GMT -0500)
Robinson Creek | | Change Station
Active Advisory: Small Craft Advisory

Elev 20 ft 37.66 °N, 76.60 °W | Updated 5 seconds ago

Overcast
Overcast
51.4 °F
Feels Like 51.4 °F
N
4.0
Wind Variable Wind from West
Gusts 4.0 mph

Today
High -- | Low -- °F
--% Chance of Precip.
Yesterday
High -- | Low -- °F
Precip. -- in
Pressure 29.55 in
Visibility 10.0 miles
Clouds Scattered Clouds 4500 ft
Mostly Cloudy 9500 ft
Dew Point 40 °F
Humidity 66%
Rainfall 0.00 in
Snow Depth Not available.
7:15 AM 5:21 PM
Waning Crescent, 10% visible
METAR KFYJ 242015Z AUTO 29008G15KT 10SM SCT045 BKN095 11/02 A2955 RMK AO2 T01050023
Pressure 29.55 in
Visibility 10.0 miles
Clouds Scattered Clouds 4500 ft
Mostly Cloudy 9500 ft
Dew Point 40 °F
Humidity 66%
Rainfall 0.00 in
Snow Depth Not available.
7:15 AM 5:21 PM
Waning Crescent, 10% visible
METAR KFYJ 242015Z AUTO 29008G15KT 10SM SCT045 BKN095 11/02 A2955 RMK AO2 T01050023

Get Your Daily Forecast Email!

Thanks for signing up!

Be on the lookout for a verification email in your inbox.

You'll start receiving the daily forecast at 8 AM.

×

10-Day Weather Forecast

Almanac

Astronomy

Jan. 24, 2017 Rise Set
Actual Time
Civil Twilight
Nautical Twilight
Astronomical Twilight
Moon
Length of Visible Light
Length of Day
Tomorrow will be .
, % of the Moon is Illuminated

Today's Extremes

State Highs State Lows

Community

WunderPhotos

Upload Photos

1,962,540 photos uploaded!

WunderBlog® & News

Nearby

Air Quality

  Air Quality AQ Index Pollutant
Not available.

Snow Depth

Station Depth Elevation

Earthquake Activity

City Distance Mag. Time & Date
Minimum magnitude displayed is 2.5.

Coastal Water Temperatures

Place Temperature

Stations

Nearby Weather Stations

Station Location Temp. Windchill Dew Point Humidity Wind Precip. Elev Updated Type
                   

Watches & Warnings

Small Craft Advisory
Issued: 10:05 AM EST Jan. 24, 2017 – National Weather Service

... Small Craft Advisory remains in effect until 4 PM EST this
afternoon...

* winds... northwest 15 to 20 kt with gusts up to 25 kt.

Precautionary/preparedness actions...

A Small Craft Advisory means wind speeds of 20 to 33 knots over
the rivers of eastern Virginia are expected to produce hazardous
boating conditions to small craft. Inexperienced mariners...
especially those operating smaller vessels... should avoid
navigating in these conditions.

Mariners should pay close attention to the marine forecast... and
consider wind and sea conditions in planning.